createdAt,value
2023-02-16T00:01:37.105Z,47.94
2023-02-16T00:06:39.235Z,48.14
2023-02-16T00:12:00.929Z,49.27
2023-02-16T00:17:03.948Z,50.38
2023-02-16T00:22:07.775Z,51.41
2023-02-16T00:27:16.102Z,50.89
2023-02-16T00:32:18.368Z,49.40
2023-02-16T00:37:20.654Z,50.02
2023-02-16T00:42:26.446Z,50.03
2023-02-16T00:47:28.625Z,49.53
2023-02-16T00:52:38.108Z,49.42
2023-02-16T00:57:54.524Z,49.62
2023-02-16T01:03:05.384Z,49.18
2023-02-16T01:08:33.500Z,49.44
2023-02-16T01:13:49.506Z,50.22
2023-02-16T01:18:52.747Z,50.20
2023-02-16T01:23:55.132Z,50.50
2023-02-16T01:28:57.313Z,50.40
2023-02-16T01:33:59.548Z,50.59
2023-02-16T01:39:02.478Z,50.00
2023-02-16T01:44:19.312Z,49.11
2023-02-16T01:49:22.355Z,48.82
2023-02-16T01:54:43.993Z,48.83
2023-02-16T01:59:46.068Z,48.30
2023-02-16T02:05:12.335Z,48.59
2023-02-16T02:10:27.386Z,49.19
2023-02-16T02:15:32.990Z,49.26
2023-02-16T02:21:16.391Z,50.05
2023-02-16T02:26:40.116Z,50.43
2023-02-16T02:32:00.471Z,49.55
2023-02-16T02:37:29.707Z,49.93
2023-02-16T02:43:11.224Z,49.45
2023-02-16T02:48:13.460Z,49.72
2023-02-16T02:53:16.844Z,49.92
2023-02-16T02:58:39.046Z,50.13
2023-02-16T03:03:48.489Z,49.46
2023-02-16T03:09:12.290Z,49.65
2023-02-16T03:14:19.257Z,49.83
2023-02-16T03:19:39.964Z,50.85
2023-02-16T03:25:01.136Z,50.77
2023-02-16T03:30:05.845Z,49.73
2023-02-16T03:35:08.977Z,49.46
2023-02-16T03:40:30.384Z,49.31
2023-02-16T03:45:37.396Z,49.97
2023-02-16T03:50:39.582Z,49.76
2023-02-16T03:55:47.634Z,50.81
2023-02-16T04:00:50.785Z,50.86
2023-02-16T04:05:53.190Z,50.07
2023-02-16T04:10:57.695Z,49.97
2023-02-16T04:15:59.859Z,50.07
2023-02-16T04:21:02.517Z,50.26
2023-02-16T04:26:05.241Z,49.81
2023-02-16T04:31:07.814Z,50.00
2023-02-16T04:36:10.711Z,49.70
2023-02-16T04:41:12.907Z,49.57
2023-02-16T04:46:15.130Z,50.19
2023-02-16T04:51:17.683Z,50.72
2023-02-16T04:56:20.015Z,51.36
2023-02-16T05:01:24.570Z,51.22
2023-02-16T05:06:26.998Z,50.76
2023-02-16T05:11:50.435Z,50.59
2023-02-16T05:16:52.971Z,50.99
2023-02-16T05:21:55.258Z,51.56
2023-02-16T05:26:57.507Z,50.83
2023-02-16T05:32:01.468Z,51.16
2023-02-16T05:37:05.985Z,51.13
2023-02-16T05:42:08.502Z,50.93
2023-02-16T05:47:11.695Z,51.37
2023-02-16T05:52:13.960Z,51.42
2023-02-16T05:57:16.278Z,51.90
2023-02-16T06:02:18.585Z,51.59
2023-02-16T06:07:20.768Z,51.47
2023-02-16T06:12:22.995Z,51.17
2023-02-16T06:17:25.447Z,50.98
2023-02-16T06:22:27.772Z,50.67
2023-02-16T06:27:30.122Z,50.48
2023-02-16T06:32:33.844Z,50.70
2023-02-16T06:37:36.413Z,50.51
2023-02-16T06:42:38.802Z,50.11
2023-02-16T06:47:40.970Z,50.01
2023-02-16T06:52:43.248Z,49.92
2023-02-16T06:57:45.652Z,50.38
2023-02-16T07:02:48.006Z,49.99
2023-02-16T07:07:50.580Z,50.12
2023-02-16T07:12:52.698Z,49.74
2023-02-16T07:17:55.053Z,49.38
2023-02-16T07:22:57.333Z,49.55
2023-02-16T07:27:59.862Z,49.69
2023-02-16T07:33:02.174Z,49.32
2023-02-16T07:38:05.681Z,49.14
2023-02-16T07:43:08.356Z,48.56
2023-02-16T07:48:10.533Z,48.24
2023-02-16T07:53:13.436Z,47.96
2023-02-16T07:58:27.698Z,47.47
2023-02-16T08:03:29.991Z,47.34
2023-02-16T08:08:32.842Z,47.15
2023-02-16T08:13:35.174Z,46.60
2023-02-16T08:18:38.626Z,46.61
2023-02-16T08:23:49.919Z,46.23
2023-02-16T08:28:53.055Z,46.27
2023-02-16T08:33:56.485Z,45.77
2023-02-16T08:39:01.184Z,45.51
2023-02-16T08:44:05.168Z,45.63
2023-02-16T08:49:08.737Z,46.05
2023-02-16T08:54:19.976Z,45.54
2023-02-16T08:59:23.731Z,45.16
2023-02-16T09:04:29.436Z,44.69
2023-02-16T09:09:31.793Z,44.51
2023-02-16T09:14:34.285Z,43.90
2023-02-16T09:19:36.404Z,43.46
2023-02-16T09:24:38.643Z,43.26
2023-02-16T09:29:40.807Z,43.20
2023-02-16T09:34:45.013Z,42.91
2023-02-16T09:39:47.667Z,42.65
2023-02-16T09:45:14.226Z,42.63
2023-02-16T09:50:50.327Z,42.15
2023-02-16T09:56:03.598Z,41.78
2023-02-16T10:01:45.383Z,41.69
2023-02-16T10:07:10.412Z,40.88
2023-02-16T10:12:19.757Z,41.11
2023-02-16T10:17:38.079Z,40.57
2023-02-16T10:22:42.206Z,40.77
2023-02-16T10:27:48.138Z,40.63
2023-02-16T10:33:00.044Z,40.21
2023-02-16T10:38:09.042Z,39.98
2023-02-16T10:43:18.369Z,40.14
2023-02-16T10:48:23.122Z,39.03
2023-02-16T10:53:37.784Z,39.20
2023-02-16T10:58:42.337Z,38.37
2023-02-16T11:03:50.656Z,37.75
2023-02-16T11:09:00.201Z,37.69
2023-02-16T11:14:30.819Z,38.19
2023-02-16T11:19:34.352Z,36.58
2023-02-16T11:24:39.572Z,36.14
2023-02-16T11:29:42.208Z,36.00
2023-02-16T11:34:51.752Z,35.83
2023-02-16T11:39:59.554Z,35.78
2023-02-16T11:45:04.328Z,35.95
2023-02-16T11:50:24.309Z,35.35
2023-02-16T11:55:36.402Z,35.31
2023-02-16T12:00:39.077Z,35.08
2023-02-16T12:06:02.004Z,34.96
2023-02-16T12:11:16.396Z,34.91
2023-02-16T12:16:52.573Z,35.39
2023-02-16T12:22:04.351Z,35.14
2023-02-16T12:27:27.561Z,34.29
2023-02-16T12:32:32.671Z,33.32
2023-02-16T12:38:04.484Z,33.94
2023-02-16T12:43:38.910Z,33.52
2023-02-16T12:48:59.841Z,33.86
2023-02-16T12:54:15.580Z,33.04
2023-02-16T12:59:21.020Z,32.49
2023-02-16T13:04:40.834Z,32.69
2023-02-16T13:10:01.854Z,32.91
2023-02-16T13:15:13.532Z,32.57
2023-02-16T13:20:20.136Z,32.48
2023-02-16T13:25:50.023Z,32.67
2023-02-16T13:30:59.917Z,32.44
2023-02-16T13:36:13.971Z,32.24
2023-02-16T13:41:43.340Z,32.05
2023-02-16T13:46:50.565Z,32.11
2023-02-16T13:51:52.783Z,31.88
2023-02-16T13:56:55.083Z,31.79
2023-02-16T14:01:58.189Z,31.75
2023-02-16T14:07:08.767Z,31.87
2023-02-16T14:12:16.949Z,31.39
2023-02-16T14:17:24.524Z,31.56
2023-02-16T14:22:39.650Z,31.29
2023-02-16T14:27:46.492Z,31.31
2023-02-16T14:32:59.044Z,31.42
2023-02-16T14:38:08.391Z,31.23
2023-02-16T14:43:24.664Z,31.26
2023-02-16T14:48:54.716Z,31.17
2023-02-16T14:54:21.568Z,31.19
2023-02-16T14:59:46.438Z,31.24
2023-02-16T15:04:48.667Z,30.72
2023-02-16T15:09:57.696Z,30.52
2023-02-16T15:15:10.410Z,30.44
2023-02-16T15:20:22.214Z,30.59
2023-02-16T15:25:33.053Z,31.03
2023-02-16T15:30:47.561Z,31.67
2023-02-16T15:36:03.248Z,31.83
2023-02-16T15:41:08.910Z,32.31
2023-02-16T15:46:35.872Z,32.85
2023-02-16T15:51:38.716Z,33.07
2023-02-16T15:56:46.402Z,33.41
2023-02-16T16:01:49.147Z,33.50
2023-02-16T16:06:52.648Z,33.62
2023-02-16T16:11:57.986Z,34.44
2023-02-16T16:17:00.943Z,34.78
2023-02-16T16:22:05.126Z,35.53
2023-02-16T16:27:10.441Z,35.86
2023-02-16T16:32:25.373Z,37.60
2023-02-16T16:37:34.301Z,38.65
2023-02-16T16:42:39.616Z,39.80
2023-02-16T16:47:51.155Z,40.92
2023-02-16T16:52:53.561Z,42.13
2023-02-16T16:58:08.491Z,42.59
2023-02-16T17:03:15.652Z,43.43
2023-02-16T17:08:17.904Z,43.49
2023-02-16T17:13:21.546Z,43.76
2023-02-16T17:18:23.953Z,44.06
2023-02-16T17:23:27.017Z,44.62
2023-02-16T17:28:30.252Z,45.10
2023-02-16T17:33:32.563Z,45.34
2023-02-16T17:38:35.154Z,45.29
2023-02-16T17:43:37.561Z,45.71
2023-02-16T17:48:40.095Z,45.53
2023-02-16T17:53:42.588Z,45.47
2023-02-16T17:58:44.869Z,45.56
2023-02-16T18:03:47.416Z,45.58
2023-02-16T18:08:49.778Z,45.58
2023-02-16T18:13:52.446Z,45.67
2023-02-16T18:18:55.568Z,45.84
2023-02-16T18:23:57.816Z,45.84
2023-02-16T18:29:00.912Z,45.75
2023-02-16T18:34:03.134Z,46.33
2023-02-16T18:39:06.783Z,46.69
2023-02-16T18:44:09.133Z,47.04
2023-02-16T18:49:11.467Z,47.22
2023-02-16T18:54:13.746Z,47.20
2023-02-16T18:59:16.059Z,47.37
2023-02-16T19:04:18.287Z,47.98
2023-02-16T19:09:21.042Z,48.13
2023-02-16T19:14:23.523Z,47.41
2023-02-16T19:19:25.736Z,48.00
2023-02-16T19:24:27.998Z,48.17
2023-02-16T19:29:30.187Z,48.72
2023-02-16T19:34:33.599Z,49.37
2023-02-16T19:39:37.416Z,48.78
2023-02-16T19:44:40.659Z,49.03
2023-02-16T19:49:43.108Z,48.52
2023-02-16T19:54:45.336Z,48.42
2023-02-16T19:59:47.584Z,48.72
2023-02-16T20:04:49.812Z,48.78
2023-02-16T20:09:51.940Z,48.80
2023-02-16T20:14:54.156Z,48.57
2023-02-16T20:19:56.362Z,49.59
2023-02-16T20:24:58.580Z,49.54
2023-02-16T20:30:03.434Z,49.49
2023-02-16T20:35:07.749Z,49.86
2023-02-16T20:40:10.435Z,49.62
2023-02-16T20:45:16.797Z,49.79
2023-02-16T20:50:19.209Z,49.52
2023-02-16T20:55:21.674Z,49.67
2023-02-16T21:00:25.189Z,49.28
2023-02-16T21:05:27.594Z,48.85
2023-02-16T21:10:29.776Z,48.97
2023-02-16T21:15:32.058Z,49.13
2023-02-16T21:20:34.268Z,49.44
2023-02-16T21:25:36.870Z,49.85
2023-02-16T21:30:39.487Z,50.09
2023-02-16T21:35:42.079Z,50.12
2023-02-16T21:41:02.672Z,48.98
2023-02-16T21:46:05.005Z,49.78
2023-02-16T21:51:07.648Z,49.43
2023-02-16T21:56:24.527Z,49.37
2023-02-16T22:01:33.262Z,49.83
2023-02-16T22:06:40.263Z,50.36
2023-02-16T22:11:42.636Z,50.03
2023-02-16T22:16:47.668Z,49.58
2023-02-16T22:21:51.636Z,50.00
2023-02-16T22:26:53.889Z,50.25
2023-02-16T22:31:56.195Z,50.27
2023-02-16T22:36:58.399Z,51.19
2023-02-16T22:42:00.643Z,49.98
2023-02-16T22:47:02.883Z,49.64
2023-02-16T22:52:05.214Z,49.54
2023-02-16T22:57:07.567Z,50.27
2023-02-16T23:02:09.699Z,50.40
2023-02-16T23:07:11.881Z,50.43
2023-02-16T23:12:14.144Z,49.71
2023-02-16T23:17:16.333Z,49.33
2023-02-16T23:22:18.573Z,49.83
2023-02-16T23:27:20.722Z,50.50
2023-02-16T23:32:22.840Z,50.68
2023-02-16T23:37:24.924Z,50.40
2023-02-16T23:42:27.104Z,49.95
2023-02-16T23:47:29.265Z,50.28
2023-02-16T23:52:31.474Z,50.94
2023-02-16T23:57:34.205Z,51.32
